Strona główna
METAR-TAF:

METAR-TAF

Lotnisko :

Port lotniczy Wagadugu

Wagadugu, Burkina Faso

Szerokość geograficzna: 12-21N, Długość geograficzna: 001-31W, wysokość: 316 m

Aktualna obserwacja pogody

Raport powstał 1 godzina i 56 minut temu, godzina 07:00 UTC
Wiatr 15 kt od wschód
Temperatura 26°C
Wilgotność 70%
Ciśnienie 1016 hPa
Widzialność 10 km lub więcej
Brak chmur poniżej 1500 m i brak chmur cumulonimbus

METAR: DFFD 280700Z 09015KT CAVOK 26/20 Q1016 TEMPO 4000 TSRA SCT026 FEW036CB

czas: 08:56 (08:56 UTC)

Prognoza

Raport powstał 3 godziny i 56 minut temu, godzina 05:00 UTC
Prognoza ważna od 28 godzina 06 UTC do 29 godzina 12 UTC
Wiatr 8 kt z kierunków zmiennych
Widzialność 10 km lub więcej
Mało chmury na wysokości 2600 ft
Prawdopodobieństwo 30% :
Przejściowo
od 28 godzina 10 UTC do 28 godzina 18 UTC
Widzialność: 4000 m
Rozproszone chmury na wysokości 2600 ft
Mało chmury na wysokości 3600 ft, Cumulonimbus.
burza, deszcz

TAF: DFFD 280500Z 2806/2912 VRB08KT 9999 FEW026 PROB30 TEMPO 2810/2818 4000 TSRA SCT026 FEW036CB

Obserwacja i prognoza pogody dla ponad 4000 lotnisk (raport METAR i TAF).

Dostępne stacje oznaczono żółtymi i czerwonymi punktami na mapie.

Najedź kursorem aby zobaczyć nazwę stacji.

Kliknij aby zobaczyć obserwacje i prognozy pogody.

Aby zmienić mapę: kliknij na zielony przycisk z czarnym krzyżykiem, aby powiększyć; na zielony przycisk z myślnikiem, aby pomniejszyć; na zielone strzałki, aby przejść do map sąsiednich.


METAR-TAF: